createdAt,value
2023-01-26T00:01:11.818Z,-0.55
2023-01-26T00:03:57.826Z,-0.13
2023-01-26T00:06:44.039Z,-0.14
2023-01-26T00:09:29.933Z,-0.37
2023-01-26T00:12:15.701Z,-1.61
2023-01-26T00:15:01.530Z,-0.36
2023-01-26T00:17:47.504Z,-0.31
2023-01-26T00:20:33.322Z,-0.69
2023-01-26T00:23:19.294Z,-1.32
2023-01-26T00:26:05.148Z,-1.36
2023-01-26T00:28:50.824Z,-1.49
2023-01-26T00:31:36.840Z,-2.15
2023-01-26T00:34:22.834Z,-1.92
2023-01-26T00:37:08.744Z,-1.82
2023-01-26T00:39:54.755Z,-1.55
2023-01-26T00:42:40.755Z,-2.22
2023-01-26T00:45:28.716Z,-2.15
2023-01-26T00:48:14.806Z,-0.98
2023-01-26T00:51:00.627Z,-0.45
2023-01-26T00:53:46.541Z,0.21
2023-01-26T00:56:32.203Z,0.38
2023-01-26T00:59:18.102Z,0.11
2023-01-26T01:02:04.129Z,-0.80
2023-01-26T01:04:49.986Z,-0.69
2023-01-26T01:07:36.120Z,-0.38
2023-01-26T01:10:21.979Z,-0.52
2023-01-26T01:13:07.713Z,-0.74
2023-01-26T01:15:53.656Z,-0.36
2023-01-26T01:18:39.430Z,-0.41
2023-01-26T01:21:25.243Z,-0.14
2023-01-26T01:24:11.380Z,-1.03
2023-01-26T01:26:57.202Z,-0.91
2023-01-26T01:29:43.230Z,-0.80
2023-01-26T01:32:29.213Z,-0.61
2023-01-26T01:35:15.064Z,-1.72
2023-01-26T01:38:00.996Z,-1.56
2023-01-26T01:40:46.793Z,-1.55
2023-01-26T01:43:32.820Z,-1.58
2023-01-26T01:46:18.767Z,-0.88
2023-01-26T01:49:04.617Z,-1.20
2023-01-26T01:51:50.655Z,-1.38
2023-01-26T01:54:36.516Z,-0.94
2023-01-26T01:57:22.461Z,-0.99
2023-01-26T02:00:08.323Z,-0.94
2023-01-26T02:02:54.163Z,-0.89
2023-01-26T02:05:40.162Z,-1.11
2023-01-26T02:08:26.172Z,-1.08
2023-01-26T02:11:11.909Z,-1.39
2023-01-26T02:13:57.826Z,-1.23
2023-01-26T02:16:43.629Z,-1.44
2023-01-26T02:19:29.543Z,-1.57
2023-01-26T02:22:15.561Z,-2.08
2023-01-26T02:25:01.427Z,-2.25
2023-01-26T02:27:47.409Z,-2.17
2023-01-26T02:30:33.465Z,-2.17
2023-01-26T02:33:19.394Z,-2.07
2023-01-26T02:36:05.222Z,-2.06
2023-01-26T02:38:51.048Z,-1.99
2023-01-26T02:41:36.888Z,-1.87
2023-01-26T02:44:22.848Z,-1.94
2023-01-26T02:47:08.756Z,-2.12
2023-01-26T02:49:54.707Z,-1.52
2023-01-26T02:52:40.532Z,-1.77
2023-01-26T02:55:26.575Z,-1.31
2023-01-26T02:58:12.783Z,-1.58
2023-01-26T03:00:58.555Z,-1.52
2023-01-26T03:03:44.623Z,-1.68
2023-01-26T03:06:30.584Z,-1.83
2023-01-26T03:09:16.586Z,-1.64
2023-01-26T03:12:02.613Z,-1.01
2023-01-26T03:14:48.548Z,-0.87
2023-01-26T03:17:34.558Z,-1.08
2023-01-26T03:20:20.430Z,-0.98
2023-01-26T03:23:06.258Z,-0.47
2023-01-26T03:25:52.107Z,-0.27
2023-01-26T03:28:37.910Z,-0.08
2023-01-26T03:31:23.819Z,-0.07
2023-01-26T03:34:10.161Z,0.16
2023-01-26T03:36:55.982Z,0.07
2023-01-26T03:39:41.857Z,-0.22
2023-01-26T03:42:27.845Z,-0.44
2023-01-26T03:45:13.666Z,-0.73
2023-01-26T03:47:59.635Z,-1.44
2023-01-26T03:50:45.423Z,-1.44
2023-01-26T03:53:31.478Z,-1.66
2023-01-26T03:56:17.458Z,-1.53
2023-01-26T03:59:03.301Z,-0.93
2023-01-26T04:01:49.371Z,-1.03
2023-01-26T04:04:35.577Z,-0.68
2023-01-26T04:07:21.424Z,-0.83
2023-01-26T04:10:07.302Z,-1.69
2023-01-26T04:12:56.707Z,-1.77
2023-01-26T04:15:42.569Z,-1.99
2023-01-26T04:18:28.536Z,-2.00
2023-01-26T04:21:14.375Z,-1.52
2023-01-26T04:24:00.162Z,-1.88
2023-01-26T04:26:45.990Z,-1.91
2023-01-26T04:29:31.827Z,-2.24
2023-01-26T04:32:17.781Z,-2.18
2023-01-26T04:35:03.735Z,-2.10
2023-01-26T04:37:49.603Z,-1.95
2023-01-26T04:40:35.479Z,-1.60
2023-01-26T04:43:23.257Z,-1.78
2023-01-26T04:46:09.163Z,-2.46
2023-01-26T04:48:55.148Z,-2.72
2023-01-26T04:51:40.897Z,-2.34
2023-01-26T04:54:26.687Z,-2.51
2023-01-26T04:57:12.603Z,-2.65
2023-01-26T05:00:00.432Z,-2.32
2023-01-26T05:02:46.515Z,-2.15
2023-01-26T05:05:32.333Z,-2.78
2023-01-26T05:08:18.175Z,-2.28
2023-01-26T05:11:04.190Z,-2.45
2023-01-26T05:13:50.141Z,-2.03
2023-01-26T05:16:36.065Z,-2.36
2023-01-26T05:19:21.993Z,-3.09
2023-01-26T05:22:07.807Z,-2.96
2023-01-26T05:24:53.698Z,-2.75
2023-01-26T05:27:39.528Z,-2.48
2023-01-26T05:30:25.566Z,-2.34
2023-01-26T05:33:11.543Z,-3.12
2023-01-26T05:35:57.522Z,-2.66
2023-01-26T05:38:43.484Z,-3.17
2023-01-26T05:41:31.332Z,-3.00
2023-01-26T05:44:17.175Z,-2.60
2023-01-26T05:47:03.198Z,-2.37
2023-01-26T05:49:49.130Z,-2.45
2023-01-26T05:52:34.977Z,-2.53
2023-01-26T05:55:20.943Z,-2.56
2023-01-26T05:58:06.819Z,-2.70
2023-01-26T06:00:52.733Z,-2.69
2023-01-26T06:03:38.771Z,-2.52
2023-01-26T06:06:24.633Z,-2.52
2023-01-26T06:09:10.578Z,-2.94
2023-01-26T06:11:56.464Z,-2.81
2023-01-26T06:14:42.437Z,-3.06
2023-01-26T06:17:28.313Z,-3.08
2023-01-26T06:20:14.346Z,-2.84
2023-01-26T06:23:00.330Z,-2.78
2023-01-26T06:25:46.281Z,-2.88
2023-01-26T06:28:32.109Z,-2.70
2023-01-26T06:31:18.181Z,-3.00
2023-01-26T06:34:04.228Z,-2.95
2023-01-26T06:36:49.940Z,-3.16
2023-01-26T06:39:35.933Z,-3.15
2023-01-26T06:42:21.855Z,-3.01
2023-01-26T06:45:07.674Z,-2.78
2023-01-26T06:47:53.814Z,-2.73
2023-01-26T06:50:39.723Z,-2.94
2023-01-26T06:53:25.564Z,-2.91
2023-01-26T06:56:11.502Z,-2.94
2023-01-26T06:58:57.482Z,-2.58
2023-01-26T07:01:43.304Z,-2.64
2023-01-26T07:04:29.137Z,-2.52
2023-01-26T07:07:15.067Z,-2.64
2023-01-26T07:10:00.997Z,-2.71
2023-01-26T07:12:46.868Z,-2.99
2023-01-26T07:15:32.803Z,-2.79
2023-01-26T07:18:18.662Z,-2.59
2023-01-26T07:21:04.487Z,-2.66
2023-01-26T07:23:50.443Z,-2.82
2023-01-26T07:26:36.337Z,-2.71
2023-01-26T07:29:22.285Z,-2.18
2023-01-26T07:32:08.306Z,-2.69
2023-01-26T07:34:54.150Z,-2.77
2023-01-26T07:37:40.066Z,-2.41
2023-01-26T07:40:26.161Z,-2.36
2023-01-26T07:43:11.965Z,-2.54
2023-01-26T07:45:57.898Z,-2.60
2023-01-26T07:48:43.785Z,-2.42
2023-01-26T07:51:29.693Z,-2.25
2023-01-26T07:54:15.613Z,-2.00
2023-01-26T07:57:01.575Z,-2.17
2023-01-26T07:59:47.601Z,-2.02
2023-01-26T08:02:33.479Z,-2.19
2023-01-26T08:05:19.364Z,-2.23
2023-01-26T08:08:05.519Z,-2.50
2023-01-26T08:10:51.341Z,-3.12
2023-01-26T08:13:37.240Z,-2.92
2023-01-26T08:16:23.254Z,-2.61
2023-01-26T08:19:09.136Z,-2.75
2023-01-26T08:21:54.917Z,-2.58
2023-01-26T08:24:40.695Z,-2.52
2023-01-26T08:27:26.646Z,-2.28
2023-01-26T08:30:12.919Z,-2.37
2023-01-26T08:32:59.095Z,-2.57
2023-01-26T08:35:45.005Z,-2.47
2023-01-26T08:38:30.939Z,-2.55
2023-01-26T08:41:16.731Z,-2.79
2023-01-26T08:44:02.520Z,-2.25
2023-01-26T08:46:48.369Z,-2.35
2023-01-26T08:49:34.142Z,-2.23
2023-01-26T08:52:20.169Z,-2.49
2023-01-26T08:55:06.087Z,-2.31
2023-01-26T08:57:51.933Z,-2.48
2023-01-26T09:00:37.895Z,-2.91
2023-01-26T09:03:23.890Z,-2.96
2023-01-26T09:06:09.904Z,-2.82
2023-01-26T09:08:55.826Z,-2.67
2023-01-26T09:11:41.815Z,-3.34
2023-01-26T09:14:27.894Z,-2.96
2023-01-26T09:17:13.758Z,-3.07
2023-01-26T09:19:59.777Z,-2.90
2023-01-26T09:22:45.676Z,-3.48
2023-01-26T09:25:31.702Z,-2.79
2023-01-26T09:28:17.603Z,-3.11
2023-01-26T09:31:03.564Z,-2.55
2023-01-26T09:33:49.853Z,-2.77
2023-01-26T09:36:35.946Z,-2.39
2023-01-26T09:39:21.786Z,-2.38
2023-01-26T09:42:08.037Z,-2.35
2023-01-26T09:44:54.957Z,-2.89
2023-01-26T09:47:40.629Z,-2.74
2023-01-26T09:50:26.638Z,-2.72
2023-01-26T09:53:12.461Z,-2.22
2023-01-26T09:55:58.436Z,-2.92
2023-01-26T09:58:44.565Z,-2.89
2023-01-26T10:01:32.517Z,-3.40
2023-01-26T10:04:18.592Z,-3.36
2023-01-26T10:07:04.559Z,-3.19
2023-01-26T10:09:50.439Z,-3.47
2023-01-26T10:12:36.455Z,-3.46
2023-01-26T10:15:22.400Z,-3.40
2023-01-26T10:18:08.254Z,-3.43
2023-01-26T10:20:54.281Z,-3.29
2023-01-26T10:23:40.250Z,-3.12
2023-01-26T10:26:26.164Z,-3.02
2023-01-26T10:29:12.309Z,-2.81
2023-01-26T10:31:58.151Z,-2.81
2023-01-26T10:34:44.378Z,-3.14
2023-01-26T10:37:30.328Z,-3.26
2023-01-26T10:40:16.224Z,-3.17
2023-01-26T10:43:02.202Z,-3.20
2023-01-26T10:45:48.008Z,-3.07
2023-01-26T10:48:34.049Z,-2.99
2023-01-26T10:51:20.074Z,-3.46
2023-01-26T10:54:05.925Z,-3.32
2023-01-26T10:56:51.929Z,-3.22
2023-01-26T10:59:37.902Z,-3.21
2023-01-26T11:02:23.988Z,-3.33
2023-01-26T11:05:12.513Z,-3.18
2023-01-26T11:07:58.536Z,-3.01
2023-01-26T11:10:44.585Z,-3.17
2023-01-26T11:13:30.645Z,-3.39
2023-01-26T11:16:16.486Z,-3.24
2023-01-26T11:19:02.919Z,-3.03
2023-01-26T11:21:49.044Z,-3.06
2023-01-26T11:24:35.904Z,-2.84
2023-01-26T11:27:21.856Z,-3.19
2023-01-26T11:30:07.811Z,-3.45
2023-01-26T11:32:53.727Z,-2.97
2023-01-26T11:35:39.645Z,-3.21
2023-01-26T11:38:25.496Z,-3.12
2023-01-26T11:41:11.397Z,-3.11
2023-01-26T11:43:57.357Z,-3.32
2023-01-26T11:46:43.214Z,-3.00
2023-01-26T11:49:29.126Z,-3.12
2023-01-26T11:52:15.094Z,-3.10
2023-01-26T11:55:01.026Z,-3.05
2023-01-26T11:57:46.955Z,-2.86
2023-01-26T12:00:32.859Z,-3.10
2023-01-26T12:03:18.878Z,-2.90
2023-01-26T12:06:04.890Z,-3.02
2023-01-26T12:08:50.994Z,-3.22
2023-01-26T12:11:37.458Z,-3.13
2023-01-26T12:14:23.395Z,-3.07
2023-01-26T12:17:18.067Z,-2.99
2023-01-26T12:20:04.349Z,-3.00
2023-01-26T12:22:50.324Z,-2.90
2023-01-26T12:25:36.806Z,-3.06
2023-01-26T12:28:23.291Z,-3.42
2023-01-26T12:31:09.423Z,-3.31
2023-01-26T12:33:55.719Z,-3.27
2023-01-26T12:36:41.515Z,-2.43
2023-01-26T12:39:27.396Z,-2.42
2023-01-26T12:42:13.318Z,-2.62
2023-01-26T12:44:59.259Z,-2.88
2023-01-26T12:47:45.194Z,-2.88
2023-01-26T12:50:30.989Z,-2.94
2023-01-26T12:53:16.874Z,-3.02
2023-01-26T12:56:02.735Z,-3.01
2023-01-26T12:58:48.823Z,-2.44
2023-01-26T13:01:34.900Z,-2.59
2023-01-26T13:04:21.079Z,-2.88
2023-01-26T13:07:07.006Z,-3.00
2023-01-26T13:09:53.029Z,-3.04
2023-01-26T13:12:38.961Z,-2.86
2023-01-26T13:15:24.921Z,-2.71
2023-01-26T13:18:11.054Z,-2.99
2023-01-26T13:20:56.862Z,-2.98
2023-01-26T13:23:42.784Z,-2.85
2023-01-26T13:26:28.712Z,-2.68
2023-01-26T13:29:14.614Z,-2.86
2023-01-26T13:32:00.701Z,-2.71
2023-01-26T13:34:46.579Z,-2.67
2023-01-26T13:37:32.576Z,-2.74
2023-01-26T13:40:18.581Z,-2.76
2023-01-26T13:43:07.652Z,-2.56
2023-01-26T13:45:57.713Z,-2.70
2023-01-26T13:48:43.679Z,-2.79
2023-01-26T13:51:29.489Z,-2.85
2023-01-26T13:54:15.419Z,-2.97
2023-01-26T13:57:01.361Z,-2.97
2023-01-26T13:59:47.273Z,-3.01
2023-01-26T14:02:33.298Z,-3.03
2023-01-26T14:05:19.372Z,-2.82
2023-01-26T14:08:05.175Z,-2.94
2023-01-26T14:10:51.370Z,-3.01
2023-01-26T14:13:37.356Z,-3.00
2023-01-26T14:16:25.953Z,-2.62
2023-01-26T14:19:12.345Z,-2.90
2023-01-26T14:21:58.180Z,-3.15
2023-01-26T14:24:44.021Z,-3.17
2023-01-26T14:27:29.941Z,-2.96
2023-01-26T14:30:15.764Z,-3.11
2023-01-26T14:33:01.653Z,-2.90
2023-01-26T14:35:47.568Z,-3.09
2023-01-26T14:38:33.491Z,-2.93
2023-01-26T14:41:19.418Z,-3.01
2023-01-26T14:44:05.322Z,-2.87
2023-01-26T14:46:51.279Z,-3.14
2023-01-26T14:49:37.293Z,-2.87
2023-01-26T14:52:23.160Z,-3.30
2023-01-26T14:55:09.255Z,-3.22
2023-01-26T14:57:55.275Z,-3.49
2023-01-26T15:00:41.130Z,-3.38
2023-01-26T15:03:28.005Z,-3.37
2023-01-26T15:06:13.716Z,-3.33
2023-01-26T15:08:59.641Z,-3.32
2023-01-26T15:11:45.523Z,-3.24
2023-01-26T15:14:31.475Z,-3.39
2023-01-26T15:17:17.373Z,-2.98
2023-01-26T15:20:05.544Z,-3.04
2023-01-26T15:22:51.452Z,-2.94
2023-01-26T15:25:37.349Z,-3.06
2023-01-26T15:28:23.261Z,-3.25
2023-01-26T15:31:09.124Z,-3.29
2023-01-26T15:33:55.218Z,-3.23
2023-01-26T15:36:41.178Z,-3.20
2023-01-26T15:39:26.927Z,-3.40
2023-01-26T15:42:12.781Z,-3.29
2023-01-26T15:44:58.785Z,-3.56
2023-01-26T15:47:44.759Z,-3.21
2023-01-26T15:50:30.681Z,-3.04
2023-01-26T15:53:16.550Z,-3.27
2023-01-26T15:56:02.351Z,-3.21
2023-01-26T15:58:48.205Z,-3.30
2023-01-26T16:01:34.111Z,-3.43
2023-01-26T16:04:19.954Z,-3.31
2023-01-26T16:07:05.751Z,-3.44
2023-01-26T16:09:51.487Z,-3.10
2023-01-26T16:12:37.285Z,-3.22
2023-01-26T16:15:23.198Z,-3.09
2023-01-26T16:18:09.158Z,-3.14
2023-01-26T16:20:54.991Z,-2.86
2023-01-26T16:23:40.865Z,-2.98
2023-01-26T16:26:26.784Z,-3.39
2023-01-26T16:29:12.721Z,-3.40
2023-01-26T16:31:58.833Z,-3.25
2023-01-26T16:34:44.963Z,-3.23
2023-01-26T16:37:30.769Z,-3.31
2023-01-26T16:40:16.692Z,-3.21
2023-01-26T16:43:02.702Z,-3.27
2023-01-26T16:45:48.589Z,-3.46
2023-01-26T16:48:34.549Z,-3.43
2023-01-26T16:51:20.518Z,-3.23
2023-01-26T16:54:06.473Z,-3.15
2023-01-26T16:56:52.281Z,-3.22
2023-01-26T16:59:38.209Z,-3.39
2023-01-26T17:02:24.299Z,-3.12
2023-01-26T17:05:10.496Z,-3.54
2023-01-26T17:07:56.777Z,-3.68
2023-01-26T17:10:59.583Z,-3.33
2023-01-26T17:13:47.329Z,-3.61
2023-01-26T17:16:33.463Z,-3.80
2023-01-26T17:19:19.362Z,-3.48
2023-01-26T17:22:05.144Z,-3.56
2023-01-26T17:24:51.005Z,-3.75
2023-01-26T17:27:36.913Z,-3.83
2023-01-26T17:30:22.844Z,-3.77
2023-01-26T17:33:08.832Z,-3.73
2023-01-26T17:35:54.682Z,-3.67
2023-01-26T17:38:40.564Z,-3.61
2023-01-26T17:41:26.397Z,-3.54
2023-01-26T17:44:12.291Z,-3.42
2023-01-26T17:46:58.193Z,-3.68
2023-01-26T17:49:44.119Z,-3.45
2023-01-26T17:52:30.267Z,-3.67
2023-01-26T17:55:18.232Z,-3.81
2023-01-26T17:58:04.120Z,-3.62
2023-01-26T18:00:50.043Z,-3.56
2023-01-26T18:03:35.980Z,-3.68
2023-01-26T18:06:21.878Z,-3.82
2023-01-26T18:09:07.952Z,-3.68
2023-01-26T18:11:53.776Z,-3.91
2023-01-26T18:14:39.707Z,-3.58
2023-01-26T18:17:25.751Z,-3.57
2023-01-26T18:20:11.619Z,-3.71
2023-01-26T18:22:57.519Z,-3.57
2023-01-26T18:25:43.385Z,-3.81
2023-01-26T18:28:29.205Z,-4.01
2023-01-26T18:31:15.242Z,-3.97
2023-01-26T18:34:01.163Z,-4.00
2023-01-26T18:36:47.128Z,-3.86
2023-01-26T18:39:33.248Z,-3.91
2023-01-26T18:42:19.140Z,-3.80
2023-01-26T18:45:05.037Z,-3.94
2023-01-26T18:47:50.932Z,-3.72
2023-01-26T18:50:36.740Z,-3.75
2023-01-26T18:53:22.732Z,-3.65
2023-01-26T18:56:08.623Z,-3.80
2023-01-26T18:58:54.487Z,-3.62
2023-01-26T19:01:40.473Z,-3.69
2023-01-26T19:04:27.831Z,-3.83
2023-01-26T19:07:13.776Z,-3.95
2023-01-26T19:09:59.633Z,-3.73
2023-01-26T19:12:45.640Z,-3.86
2023-01-26T19:15:31.555Z,-3.95
2023-01-26T19:18:17.299Z,-3.80
2023-01-26T19:21:03.150Z,-3.99
2023-01-26T19:23:49.278Z,-3.77
2023-01-26T19:26:35.176Z,-3.79
2023-01-26T19:29:21.131Z,-4.02
2023-01-26T19:32:07.271Z,-3.98
2023-01-26T19:34:53.185Z,-3.81
2023-01-26T19:37:39.213Z,-3.88
2023-01-26T19:40:26.958Z,-4.01
2023-01-26T19:43:12.929Z,-4.08
2023-01-26T19:45:58.860Z,-3.81
2023-01-26T19:48:44.782Z,-3.80
2023-01-26T19:51:30.765Z,-4.02
2023-01-26T19:54:16.684Z,-3.84
2023-01-26T19:57:02.695Z,-3.95
2023-01-26T19:59:48.740Z,-3.82
2023-01-26T20:02:34.686Z,-3.98
2023-01-26T20:05:20.825Z,-3.94
2023-01-26T20:08:08.718Z,-4.01
2023-01-26T20:10:54.702Z,-3.93
2023-01-26T20:13:40.568Z,-4.03
2023-01-26T20:16:26.551Z,-3.91
2023-01-26T20:19:12.320Z,-3.89
2023-01-26T20:21:58.144Z,-3.82
2023-01-26T20:24:44.161Z,-3.74
2023-01-26T20:27:30.037Z,-3.91
2023-01-26T20:30:16.015Z,-3.79
2023-01-26T20:33:01.987Z,-3.90
2023-01-26T20:35:47.804Z,-3.87
2023-01-26T20:38:33.756Z,-3.78
2023-01-26T20:41:19.790Z,-3.92
2023-01-26T20:44:05.749Z,-3.91
2023-01-26T20:46:51.766Z,-3.98
2023-01-26T20:49:37.617Z,-4.04
2023-01-26T20:52:23.601Z,-3.90
2023-01-26T20:55:09.516Z,-4.09
2023-01-26T20:57:55.410Z,-3.85
2023-01-26T21:00:41.440Z,-3.99
2023-01-26T21:03:27.343Z,-4.03
2023-01-26T21:06:15.185Z,-3.96
2023-01-26T21:09:01.051Z,-4.01
2023-01-26T21:11:46.992Z,-3.80
2023-01-26T21:14:32.919Z,-3.93
2023-01-26T21:17:18.936Z,-3.78
2023-01-26T21:20:04.744Z,-3.84
2023-01-26T21:22:50.610Z,-3.74
2023-01-26T21:25:36.553Z,-3.95
2023-01-26T21:28:22.449Z,-3.65
2023-01-26T21:31:08.469Z,-3.98
2023-01-26T21:33:54.639Z,-4.05
2023-01-26T21:36:40.584Z,-4.21
2023-01-26T21:39:26.532Z,-4.22
2023-01-26T21:42:12.405Z,-4.26
2023-01-26T21:44:58.328Z,-3.79
2023-01-26T21:47:44.038Z,-4.09
2023-01-26T21:50:29.921Z,-4.12
2023-01-26T21:53:15.733Z,-4.06
2023-01-26T21:56:01.609Z,-3.73
2023-01-26T21:58:47.609Z,-3.86
2023-01-26T22:01:33.527Z,-4.04
2023-01-26T22:04:19.363Z,-4.00
2023-01-26T22:07:05.310Z,-3.78
2023-01-26T22:09:51.168Z,-3.65
2023-01-26T22:12:37.190Z,-4.00
2023-01-26T22:15:25.022Z,-4.22
2023-01-26T22:18:10.802Z,-4.00
2023-01-26T22:20:56.628Z,-4.04
2023-01-26T22:23:42.655Z,-3.84
2023-01-26T22:26:28.552Z,-3.89
2023-01-26T22:29:14.488Z,-3.72
2023-01-26T22:32:00.414Z,-3.70
2023-01-26T22:34:46.419Z,-3.69
2023-01-26T22:37:32.294Z,-4.23
2023-01-26T22:40:18.192Z,-4.09
2023-01-26T22:43:04.050Z,-3.94
2023-01-26T22:45:49.981Z,-3.97
2023-01-26T22:48:35.981Z,-3.98
2023-01-26T22:51:21.944Z,-4.18
2023-01-26T22:54:07.826Z,-3.90
2023-01-26T22:56:53.873Z,-4.11
2023-01-26T22:59:39.737Z,-4.11
2023-01-26T23:02:25.509Z,-3.96
2023-01-26T23:05:11.450Z,-3.55
2023-01-26T23:07:57.286Z,-3.96
2023-01-26T23:10:43.299Z,-4.07
2023-01-26T23:13:29.108Z,-4.10
2023-01-26T23:16:15.093Z,-3.87
2023-01-26T23:19:00.870Z,-4.11
2023-01-26T23:21:46.845Z,-3.99
2023-01-26T23:24:32.794Z,-4.09
2023-01-26T23:27:18.631Z,-3.87
2023-01-26T23:30:04.601Z,-3.96
2023-01-26T23:32:50.461Z,-4.03
2023-01-26T23:35:38.061Z,-3.76
2023-01-26T23:38:23.868Z,-4.04
2023-01-26T23:41:09.775Z,-4.00
2023-01-26T23:43:55.753Z,-3.80
2023-01-26T23:46:41.768Z,-3.96
2023-01-26T23:49:27.773Z,-3.81
2023-01-26T23:52:13.726Z,-3.96
2023-01-26T23:54:59.701Z,-4.01
2023-01-26T23:57:45.699Z,-3.97
